createdAt,value
2022-08-17T00:01:52.745Z,17.73
2022-08-17T00:04:21.445Z,17.70
2022-08-17T00:06:53.937Z,17.69
2022-08-17T00:09:20.674Z,17.67
2022-08-17T00:12:35.009Z,17.66
2022-08-17T00:14:39.950Z,17.63
2022-08-17T00:17:07.506Z,17.60
2022-08-17T00:19:40.389Z,17.57
2022-08-17T00:22:33.585Z,17.55
2022-08-17T00:24:59.960Z,17.52
2022-08-17T00:27:33.169Z,17.50
2022-08-17T00:29:59.957Z,17.46
2022-08-17T00:33:22.894Z,17.42
2022-08-17T00:35:19.367Z,17.38
2022-08-17T00:37:46.140Z,17.36
2022-08-17T00:40:14.734Z,17.34
2022-08-17T00:42:43.025Z,17.31
2022-08-17T00:45:11.390Z,17.28
2022-08-17T00:47:42.222Z,17.26
2022-08-17T00:50:14.715Z,17.23
2022-08-17T00:52:48.115Z,17.19
2022-08-17T00:55:18.753Z,17.17
2022-08-17T00:57:50.337Z,17.16
2022-08-17T01:00:26.469Z,17.14
2022-08-17T01:03:08.726Z,17.14
2022-08-17T01:05:38.468Z,17.11
2022-08-17T01:08:23.012Z,17.09
2022-08-17T01:10:58.522Z,17.09
2022-08-17T01:13:41.725Z,17.08
2022-08-17T01:16:15.501Z,17.06
2022-08-17T01:18:47.684Z,17.04
2022-08-17T01:21:37.348Z,17.02
2022-08-17T01:24:12.893Z,16.97
2022-08-17T01:26:46.383Z,16.94
2022-08-17T01:29:16.091Z,16.92
2022-08-17T01:31:47.335Z,16.89
2022-08-17T01:34:15.486Z,16.86
2022-08-17T01:36:47.034Z,16.83
2022-08-17T01:39:40.565Z,16.79
2022-08-17T01:42:11.486Z,16.77
2022-08-17T01:44:43.224Z,16.74
2022-08-17T01:47:10.030Z,16.72
2022-08-17T01:49:39.025Z,16.70
2022-08-17T01:52:11.706Z,16.68
2022-08-17T01:54:39.560Z,16.66
2022-08-17T01:57:07.757Z,16.63
2022-08-17T01:59:36.002Z,16.61
2022-08-17T02:02:08.449Z,16.59
2022-08-17T02:04:41.335Z,16.56
2022-08-17T02:07:10.695Z,16.55
2022-08-17T02:09:37.489Z,16.54
2022-08-17T02:12:38.020Z,16.52
2022-08-17T02:15:00.722Z,16.49
2022-08-17T02:17:29.922Z,16.47
2022-08-17T02:19:56.732Z,16.46
2022-08-17T02:22:25.646Z,16.45
2022-08-17T02:25:00.522Z,16.44
2022-08-17T02:27:30.227Z,16.44
2022-08-17T02:29:59.261Z,16.44
2022-08-17T02:32:28.186Z,16.43
2022-08-17T02:34:58.112Z,16.42
2022-08-17T02:37:29.173Z,16.42
2022-08-17T02:40:00.785Z,16.41
2022-08-17T02:42:36.325Z,16.40
2022-08-17T02:45:04.702Z,16.40
2022-08-17T02:47:31.548Z,16.37
2022-08-17T02:50:00.416Z,16.36
2022-08-17T02:52:43.291Z,16.35
2022-08-17T02:55:27.328Z,16.32
2022-08-17T02:57:54.841Z,16.30
2022-08-17T03:00:23.627Z,16.28
2022-08-17T03:02:56.288Z,16.27
2022-08-17T03:05:24.871Z,16.26
2022-08-17T03:07:56.218Z,16.26
2022-08-17T03:10:24.232Z,16.26
2022-08-17T03:12:52.235Z,16.26
2022-08-17T03:15:28.383Z,16.27
2022-08-17T03:17:56.181Z,16.26
2022-08-17T03:20:24.398Z,16.25
2022-08-17T03:22:55.187Z,16.24
2022-08-17T03:25:39.807Z,16.23
2022-08-17T03:28:06.923Z,16.22
2022-08-17T03:30:35.518Z,16.21
2022-08-17T03:33:03.900Z,16.19
2022-08-17T03:35:37.124Z,16.16
2022-08-17T03:38:04.614Z,16.14
2022-08-17T03:40:57.256Z,16.12
2022-08-17T03:43:27.969Z,16.11
2022-08-17T03:46:34.190Z,16.10
2022-08-17T03:49:18.271Z,16.07
2022-08-17T03:52:03.546Z,16.08
2022-08-17T03:54:48.939Z,16.10
2022-08-17T03:57:18.750Z,16.11
2022-08-17T03:59:45.825Z,16.13
2022-08-17T04:02:15.722Z,16.16
2022-08-17T04:04:42.578Z,16.20
2022-08-17T04:07:09.541Z,16.23
2022-08-17T04:09:39.378Z,16.26
2022-08-17T04:12:06.259Z,16.28
2022-08-17T04:14:35.983Z,16.32
2022-08-17T04:17:13.612Z,16.34
2022-08-17T04:19:40.393Z,16.36
2022-08-17T04:22:32.183Z,16.38
2022-08-17T04:25:21.111Z,16.44
2022-08-17T04:27:48.345Z,16.52
2022-08-17T04:30:18.372Z,16.60
2022-08-17T04:33:07.294Z,16.69
2022-08-17T04:35:47.730Z,16.80
2022-08-17T04:38:16.081Z,16.90
2022-08-17T04:41:05.975Z,17.01
2022-08-17T04:43:34.151Z,17.10
2022-08-17T04:46:07.465Z,17.18
2022-08-17T04:48:56.588Z,17.23
2022-08-17T04:51:29.805Z,17.32
2022-08-17T04:54:00.971Z,17.43
2022-08-17T04:56:28.749Z,17.53
2022-08-17T04:59:00.801Z,17.62
2022-08-17T05:01:32.397Z,17.71
2022-08-17T05:04:33.611Z,17.81
2022-08-17T05:07:04.581Z,17.93
2022-08-17T05:09:35.706Z,18.04
2022-08-17T05:12:03.871Z,18.15
2022-08-17T05:14:32.913Z,18.27
2022-08-17T05:17:09.422Z,18.39
2022-08-17T05:19:41.185Z,18.55
2022-08-17T05:22:16.905Z,18.71
2022-08-17T05:24:53.892Z,18.90
2022-08-17T05:27:32.907Z,19.11
2022-08-17T05:30:12.160Z,19.36
2022-08-17T05:32:41.109Z,19.65
2022-08-17T05:35:09.452Z,19.91
2022-08-17T05:37:42.484Z,20.18
2022-08-17T05:40:10.160Z,20.46
2022-08-17T05:42:41.860Z,20.73
2022-08-17T05:45:15.286Z,21.03
2022-08-17T05:47:43.812Z,21.37
2022-08-17T05:50:19.588Z,21.71
2022-08-17T05:53:05.896Z,22.06
2022-08-17T05:55:48.289Z,22.40
2022-08-17T05:58:30.998Z,22.80
2022-08-17T06:01:12.307Z,23.27
2022-08-17T06:03:44.588Z,23.72
2022-08-17T06:06:17.976Z,24.14
2022-08-17T06:08:51.673Z,24.58
2022-08-17T06:11:32.498Z,24.99
2022-08-17T06:14:11.882Z,25.49
2022-08-17T06:16:46.141Z,25.93
2022-08-17T06:19:27.481Z,26.35
2022-08-17T06:21:58.101Z,26.73
2022-08-17T06:24:34.730Z,27.11
2022-08-17T06:27:07.171Z,27.41
2022-08-17T06:29:47.031Z,27.74
2022-08-17T06:32:17.157Z,28.15
2022-08-17T06:34:47.662Z,28.50
2022-08-17T06:37:14.941Z,28.87
2022-08-17T06:39:47.729Z,29.19
2022-08-17T06:43:04.073Z,29.46
2022-08-17T06:45:13.987Z,29.81
2022-08-17T06:48:00.995Z,30.08
2022-08-17T06:50:52.011Z,30.44
2022-08-17T06:53:25.937Z,30.72
2022-08-17T06:56:18.579Z,31.09
2022-08-17T06:58:49.472Z,31.43
2022-08-17T07:01:27.668Z,31.74
2022-08-17T07:04:05.135Z,32.20
2022-08-17T07:06:44.720Z,32.41
2022-08-17T07:09:25.161Z,32.74
2022-08-17T07:12:03.165Z,33.10
2022-08-17T07:14:48.129Z,33.27
2022-08-17T07:17:46.403Z,33.63
2022-08-17T07:20:14.483Z,33.96
2022-08-17T07:22:58.208Z,33.96
2022-08-17T07:25:30.117Z,34.25
2022-08-17T07:27:59.833Z,34.62
2022-08-17T07:30:28.621Z,34.81
2022-08-17T07:33:13.375Z,34.97
2022-08-17T07:35:50.198Z,35.27
2022-08-17T07:38:24.125Z,35.40
2022-08-17T07:41:05.575Z,35.55
2022-08-17T07:43:37.678Z,35.78
2022-08-17T07:46:23.145Z,36.02
2022-08-17T07:48:56.246Z,36.44
2022-08-17T07:51:25.826Z,36.71
2022-08-17T07:54:09.138Z,37.06
2022-08-17T07:56:53.875Z,37.17
2022-08-17T07:59:34.021Z,37.28
2022-08-17T08:02:16.913Z,37.67
2022-08-17T08:05:01.038Z,37.84
2022-08-17T08:07:36.560Z,37.90
2022-08-17T08:10:13.298Z,38.00
2022-08-17T08:13:03.027Z,38.18
2022-08-17T08:15:45.148Z,38.50
2022-08-17T08:18:54.719Z,38.42
2022-08-17T08:21:29.491Z,38.77
2022-08-17T08:24:01.897Z,38.90
2022-08-17T08:26:48.572Z,38.88
2022-08-17T08:29:20.879Z,38.88
2022-08-17T08:31:57.142Z,39.04
2022-08-17T08:34:58.563Z,39.04
2022-08-17T08:37:33.641Z,39.06
2022-08-17T08:40:16.501Z,39.10
2022-08-17T08:42:46.356Z,39.08
2022-08-17T08:45:23.619Z,39.02
2022-08-17T08:47:53.483Z,38.93
2022-08-17T08:50:40.007Z,39.10
2022-08-17T08:53:12.426Z,39.30
2022-08-17T08:55:58.119Z,39.42
2022-08-17T08:58:41.904Z,39.44
2022-08-17T09:01:25.475Z,39.54
2022-08-17T09:04:24.207Z,39.51
2022-08-17T09:06:56.115Z,39.66
2022-08-17T09:09:44.888Z,39.74
2022-08-17T09:12:23.216Z,39.82
2022-08-17T09:15:13.199Z,39.92
2022-08-17T09:17:49.377Z,40.08
2022-08-17T09:20:28.761Z,40.01
2022-08-17T09:23:08.341Z,39.86
2022-08-17T09:25:45.943Z,39.88
2022-08-17T09:28:28.338Z,40.07
2022-08-17T09:31:03.765Z,40.18
2022-08-17T09:33:39.989Z,40.23
2022-08-17T09:36:18.295Z,40.34
2022-08-17T09:38:48.042Z,40.41
2022-08-17T09:41:21.803Z,40.50
2022-08-17T09:43:55.763Z,40.28
2022-08-17T09:46:39.328Z,40.09
2022-08-17T09:49:26.136Z,39.94
2022-08-17T09:52:09.048Z,39.88
2022-08-17T09:54:39.607Z,39.91
2022-08-17T09:57:29.052Z,39.90
2022-08-17T10:00:09.065Z,39.84
2022-08-17T10:03:00.098Z,39.91
2022-08-17T10:05:36.982Z,39.81
2022-08-17T10:08:21.688Z,39.76
2022-08-17T10:11:00.191Z,39.55
2022-08-17T10:13:53.167Z,39.35
2022-08-17T10:16:41.634Z,39.41
2022-08-17T10:19:11.205Z,39.56
2022-08-17T10:22:00.795Z,39.65
2022-08-17T10:25:23.153Z,39.62
2022-08-17T10:27:48.237Z,39.51
2022-08-17T10:30:21.991Z,39.52
2022-08-17T10:32:54.740Z,39.48
2022-08-17T10:35:37.464Z,39.66
2022-08-17T10:38:25.049Z,39.53
2022-08-17T10:40:58.073Z,39.55
2022-08-17T10:43:24.873Z,39.60
2022-08-17T10:46:30.495Z,39.63
2022-08-17T10:49:10.647Z,39.62
2022-08-17T10:51:38.708Z,39.24
2022-08-17T10:54:30.659Z,38.83
2022-08-17T10:56:58.517Z,38.21
2022-08-17T10:59:34.617Z,37.53
2022-08-17T11:02:09.673Z,36.82
2022-08-17T11:04:47.349Z,36.13
2022-08-17T11:07:20.009Z,35.55
2022-08-17T11:10:06.012Z,35.18
2022-08-17T11:12:54.143Z,35.10
2022-08-17T11:15:41.922Z,35.47
2022-08-17T11:18:14.734Z,35.98
2022-08-17T11:21:09.302Z,36.35
2022-08-17T11:23:55.769Z,36.80
2022-08-17T11:26:36.982Z,37.26
2022-08-17T11:29:08.447Z,37.58
2022-08-17T11:31:40.125Z,37.85
2022-08-17T11:34:26.672Z,37.72
2022-08-17T11:37:12.717Z,37.75
2022-08-17T11:39:51.523Z,37.97
2022-08-17T11:42:31.858Z,38.13
2022-08-17T11:45:31.944Z,38.16
2022-08-17T11:48:28.314Z,37.95
2022-08-17T11:51:26.196Z,37.46
2022-08-17T11:54:08.758Z,36.89
2022-08-17T11:56:54.087Z,36.38
2022-08-17T11:59:35.356Z,36.00
2022-08-17T12:02:04.215Z,35.82
2022-08-17T12:04:32.426Z,35.79
2022-08-17T12:07:12.914Z,35.79
2022-08-17T12:09:43.311Z,35.53
2022-08-17T12:12:15.396Z,35.19
2022-08-17T12:17:42.991Z,33.89
2022-08-17T12:20:34.030Z,32.82
2022-08-17T12:23:25.421Z,32.32
2022-08-17T12:25:57.972Z,31.97
2022-08-17T12:28:30.519Z,31.54
2022-08-17T12:31:23.500Z,31.27
2022-08-17T12:33:51.258Z,30.96
2022-08-17T12:36:26.114Z,30.70
2022-08-17T12:39:12.993Z,30.50
2022-08-17T12:41:55.454Z,30.36
2022-08-17T12:44:31.856Z,30.27
2022-08-17T12:47:03.195Z,30.18
2022-08-17T12:49:35.165Z,30.11
2022-08-17T12:52:17.257Z,30.10
2022-08-17T12:55:00.374Z,30.07
2022-08-17T12:57:33.059Z,30.00
2022-08-17T13:00:06.963Z,29.94
2022-08-17T13:02:43.244Z,29.83
2022-08-17T13:05:31.257Z,29.69
2022-08-17T13:08:05.517Z,29.61
2022-08-17T13:10:35.597Z,29.55
2022-08-17T13:13:05.451Z,29.49
2022-08-17T13:15:37.389Z,29.40
2022-08-17T13:18:34.709Z,29.34
2022-08-17T13:21:01.892Z,29.34
2022-08-17T13:23:33.489Z,29.43
2022-08-17T13:26:04.895Z,29.54
2022-08-17T13:28:35.946Z,29.64
2022-08-17T13:31:26.721Z,29.75
2022-08-17T13:34:14.140Z,29.87
2022-08-17T13:36:46.825Z,29.84
2022-08-17T13:39:20.981Z,29.76
2022-08-17T13:41:49.080Z,29.73
2022-08-17T13:44:35.564Z,29.70
2022-08-17T13:47:03.867Z,29.60
2022-08-17T13:49:48.252Z,29.46
2022-08-17T13:52:31.241Z,29.40
2022-08-17T13:55:00.315Z,29.37
2022-08-17T13:57:27.306Z,29.35
2022-08-17T14:00:06.219Z,29.34
2022-08-17T14:02:35.178Z,29.32
2022-08-17T14:05:06.291Z,29.32
2022-08-17T14:07:36.957Z,29.33
2022-08-17T14:10:14.648Z,29.38
2022-08-17T14:12:43.482Z,29.49
2022-08-17T14:15:14.014Z,29.70
2022-08-17T14:17:41.999Z,29.99
2022-08-17T14:20:11.315Z,30.27
2022-08-17T14:22:49.138Z,30.49
2022-08-17T14:25:20.222Z,30.65
2022-08-17T14:27:52.808Z,30.79
2022-08-17T14:30:31.941Z,30.92
2022-08-17T14:32:59.013Z,31.02
2022-08-17T14:35:29.587Z,31.13
2022-08-17T14:37:57.801Z,31.20
2022-08-17T14:40:25.147Z,31.29
2022-08-17T14:42:57.486Z,31.37
2022-08-17T14:45:32.587Z,31.46
2022-08-17T14:48:01.560Z,31.52
2022-08-17T14:50:29.035Z,31.56
2022-08-17T14:52:56.192Z,31.60
2022-08-17T14:55:31.815Z,31.62
2022-08-17T14:58:07.110Z,31.65
2022-08-17T15:00:34.302Z,31.65
2022-08-17T15:03:04.040Z,31.64
2022-08-17T15:05:34.430Z,31.63
2022-08-17T15:08:02.109Z,31.61
2022-08-17T15:10:30.425Z,31.57
2022-08-17T15:12:57.774Z,31.54
2022-08-17T15:15:24.529Z,31.50
2022-08-17T15:17:58.123Z,31.46
2022-08-17T15:20:27.728Z,31.43
2022-08-17T15:22:55.443Z,31.36
2022-08-17T15:25:28.308Z,31.30
2022-08-17T15:27:55.390Z,31.25
2022-08-17T15:30:23.939Z,31.22
2022-08-17T15:32:56.166Z,31.16
2022-08-17T15:35:29.503Z,31.09
2022-08-17T15:38:07.827Z,31.04
2022-08-17T15:40:45.750Z,30.97
2022-08-17T15:43:15.111Z,30.92
2022-08-17T15:45:44.638Z,30.87
2022-08-17T15:48:40.249Z,30.81
2022-08-17T15:51:08.459Z,30.77
2022-08-17T15:53:35.431Z,30.73
2022-08-17T15:56:07.639Z,30.70
2022-08-17T15:58:38.173Z,30.65
2022-08-17T16:01:14.658Z,30.56
2022-08-17T16:04:03.954Z,30.52
2022-08-17T16:06:34.353Z,30.46
2022-08-17T16:09:01.419Z,30.40
2022-08-17T16:11:29.240Z,30.34
2022-08-17T16:13:56.303Z,30.29
2022-08-17T16:16:28.524Z,30.25
2022-08-17T16:18:58.729Z,30.21
2022-08-17T16:21:43.210Z,30.14
2022-08-17T16:24:18.423Z,30.05
2022-08-17T16:26:45.173Z,29.99
2022-08-17T16:29:17.801Z,29.91
2022-08-17T16:31:48.710Z,29.84
2022-08-17T16:34:18.681Z,29.77
2022-08-17T16:36:56.501Z,29.69
2022-08-17T16:39:30.926Z,29.62
2022-08-17T16:41:57.794Z,29.52
2022-08-17T16:44:28.541Z,29.43
2022-08-17T16:46:57.976Z,29.36
2022-08-17T16:49:36.656Z,29.31
2022-08-17T16:52:14.162Z,29.26
2022-08-17T16:55:01.272Z,29.20
2022-08-17T16:57:29.318Z,29.15
2022-08-17T16:59:56.183Z,29.09
2022-08-17T17:02:27.515Z,29.04
2022-08-17T17:05:06.733Z,28.97
2022-08-17T17:07:45.356Z,28.89
2022-08-17T17:10:15.807Z,28.80
2022-08-17T17:13:02.303Z,28.72
2022-08-17T17:15:51.174Z,28.62
2022-08-17T17:18:25.149Z,28.52
2022-08-17T17:21:00.676Z,28.42
2022-08-17T17:23:47.748Z,28.32
2022-08-17T17:26:36.621Z,28.20
2022-08-17T17:29:19.699Z,28.07
2022-08-17T17:32:06.251Z,27.93
2022-08-17T17:34:39.947Z,27.79
2022-08-17T17:37:11.572Z,27.66
2022-08-17T17:39:43.846Z,27.54
2022-08-17T17:42:21.730Z,27.43
2022-08-17T17:44:57.875Z,27.34
2022-08-17T17:47:26.959Z,27.24
2022-08-17T17:49:53.884Z,27.15
2022-08-17T17:52:35.898Z,27.08
2022-08-17T17:55:08.531Z,26.98
2022-08-17T17:57:44.484Z,26.90
2022-08-17T18:00:15.261Z,26.81
2022-08-17T18:02:52.761Z,26.73
2022-08-17T18:05:20.713Z,26.64
2022-08-17T18:07:53.851Z,26.55
2022-08-17T18:10:33.719Z,26.46
2022-08-17T18:13:00.497Z,26.36
2022-08-17T18:15:40.618Z,26.27
2022-08-17T18:18:09.515Z,26.19
2022-08-17T18:20:53.308Z,26.10
2022-08-17T18:23:27.603Z,26.01
2022-08-17T18:26:01.372Z,25.93
2022-08-17T18:28:30.954Z,25.83
2022-08-17T18:31:09.887Z,25.76
2022-08-17T18:33:43.435Z,25.68
2022-08-17T18:36:14.788Z,25.61
2022-08-17T18:38:43.579Z,25.54
2022-08-17T18:41:17.055Z,25.47
2022-08-17T18:43:53.569Z,25.41
2022-08-17T18:46:28.818Z,25.34
2022-08-17T18:49:07.076Z,25.28
2022-08-17T18:51:41.440Z,25.23
2022-08-17T18:54:20.331Z,25.15
2022-08-17T18:56:50.956Z,25.10
2022-08-17T18:59:24.930Z,25.04
2022-08-17T19:01:59.720Z,25.00
2022-08-17T19:04:51.268Z,24.95
2022-08-17T19:07:27.941Z,24.90
2022-08-17T19:10:19.514Z,24.88
2022-08-17T19:13:00.498Z,24.84
2022-08-17T19:15:39.500Z,24.80
2022-08-17T19:18:15.572Z,24.76
2022-08-17T19:20:54.774Z,24.71
2022-08-17T19:23:37.707Z,24.65
2022-08-17T19:26:51.375Z,24.60
2022-08-17T19:28:59.312Z,24.54
2022-08-17T19:31:27.263Z,24.48
2022-08-17T19:34:00.669Z,24.40
2022-08-17T19:36:50.369Z,24.35
2022-08-17T19:39:42.003Z,24.31
2022-08-17T19:42:17.801Z,24.28
2022-08-17T19:45:00.092Z,24.25
2022-08-17T19:48:04.534Z,24.22
2022-08-17T19:50:42.799Z,24.17
2022-08-17T19:54:06.972Z,24.12
2022-08-17T19:56:45.919Z,24.05
2022-08-17T19:59:27.651Z,24.00
2022-08-17T20:02:22.948Z,23.93
2022-08-17T20:04:55.134Z,23.85
2022-08-17T20:07:28.276Z,23.79
2022-08-17T20:10:07.743Z,23.75
2022-08-17T20:12:39.412Z,23.72
2022-08-17T20:15:10.738Z,23.64
2022-08-17T20:17:40.077Z,23.55
2022-08-17T20:20:23.245Z,23.41
2022-08-17T20:22:58.790Z,23.27
2022-08-17T20:25:47.128Z,23.15
2022-08-17T20:28:27.660Z,23.03
2022-08-17T20:30:58.998Z,22.94
2022-08-17T20:33:33.683Z,22.85
2022-08-17T20:36:11.716Z,22.73
2022-08-17T20:38:44.501Z,22.58
2022-08-17T20:41:20.974Z,22.44
2022-08-17T20:44:06.974Z,22.32
2022-08-17T20:46:37.292Z,22.23
2022-08-17T20:49:17.957Z,22.17
2022-08-17T20:52:05.453Z,22.14
2022-08-17T20:54:56.776Z,22.11
2022-08-17T20:57:39.379Z,22.07
2022-08-17T21:00:16.769Z,22.04
2022-08-17T21:02:53.122Z,22.02
2022-08-17T21:05:57.411Z,22.02
2022-08-17T21:08:29.182Z,22.03
2022-08-17T21:10:57.201Z,22.02
2022-08-17T21:13:48.158Z,22.03
2022-08-17T21:16:29.334Z,22.01
2022-08-17T21:19:08.185Z,21.98
2022-08-17T21:21:48.047Z,21.96
2022-08-17T21:24:28.138Z,21.93
2022-08-17T21:27:11.542Z,21.91
2022-08-17T21:29:54.064Z,21.89
2022-08-17T21:32:29.983Z,21.86
2022-08-17T21:35:07.377Z,21.82
2022-08-17T21:37:44.967Z,21.78
2022-08-17T21:40:17.729Z,21.74
2022-08-17T21:42:47.475Z,21.70
2022-08-17T21:45:22.861Z,21.65
2022-08-17T21:47:51.048Z,21.60
2022-08-17T21:50:24.020Z,21.55
2022-08-17T21:52:55.405Z,21.50
2022-08-17T21:55:28.743Z,21.45
2022-08-17T21:58:12.184Z,21.41
2022-08-17T22:00:47.076Z,21.37
2022-08-17T22:03:25.463Z,21.35
2022-08-17T22:05:52.206Z,21.32
2022-08-17T22:08:21.752Z,21.30
2022-08-17T22:10:50.691Z,21.29
2022-08-17T22:13:17.752Z,21.29
2022-08-17T22:15:50.477Z,21.26
2022-08-17T22:18:21.737Z,21.24
2022-08-17T22:20:52.680Z,21.21
2022-08-17T22:23:49.992Z,21.19
2022-08-17T22:26:18.958Z,21.18
2022-08-17T22:28:48.804Z,21.15
2022-08-17T22:31:29.522Z,21.13
2022-08-17T22:34:02.161Z,21.10
2022-08-17T22:36:34.794Z,21.06
2022-08-17T22:39:10.433Z,21.00
2022-08-17T22:41:59.274Z,20.96
2022-08-17T22:44:32.619Z,20.90
2022-08-17T22:47:19.216Z,20.84
2022-08-17T22:49:53.904Z,20.78
2022-08-17T22:52:24.126Z,20.72
2022-08-17T22:55:32.316Z,20.68
2022-08-17T22:58:19.613Z,20.62
2022-08-17T23:00:47.965Z,20.55
2022-08-17T23:03:22.608Z,20.48
2022-08-17T23:06:04.028Z,20.41
2022-08-17T23:08:31.545Z,20.37
2022-08-17T23:11:01.282Z,20.32
2022-08-17T23:13:28.249Z,20.28
2022-08-17T23:15:55.296Z,20.24
2022-08-17T23:18:26.850Z,20.21
2022-08-17T23:20:59.869Z,20.17
2022-08-17T23:23:34.419Z,20.15
2022-08-17T23:26:01.800Z,20.12
2022-08-17T23:28:29.941Z,20.11
2022-08-17T23:30:57.801Z,20.09
2022-08-17T23:33:40.125Z,20.08
2022-08-17T23:36:09.574Z,20.07
2022-08-17T23:38:36.627Z,20.05
2022-08-17T23:41:10.562Z,20.02
2022-08-17T23:43:39.368Z,19.97
2022-08-17T23:46:07.120Z,19.92
2022-08-17T23:48:36.870Z,19.85
2022-08-17T23:51:09.591Z,19.81
2022-08-17T23:53:39.690Z,19.75
2022-08-17T23:56:11.063Z,19.72
2022-08-17T23:58:39.612Z,19.68
